Time;durP1;ratioP1;P1;durP2;ratioP2;P2;SDS_P1;SDS_P2;PMS_P1;PMS_P2;Temp;Humidity;BMP_temperature;BMP_pressure;BME280_temperature;BME280_humidity;BME280_pressure;Samples;Min_cycle;Max_cycle;Signal;HPM_P1;HPM_P2
2023/03/17 00:00:51;;;;;;;6.63;6.30;;;21.50;46.40;;;;;;5115406;28;20844;-53
2023/03/17 00:03:21;;;;;;;7.47;7.27;;;21.50;46.40;;;;;;5103176;28;20482;-53
2023/03/17 00:05:49;;;;;;;6.90;6.70;;;21.40;46.40;;;;;;5100688;28;20979;-54
2023/03/17 00:08:21;;;;;;;6.27;6.10;;;21.40;46.40;;;;;;5106215;28;20508;-55
2023/03/17 00:10:48;;;;;;;6.10;6.00;;;21.40;46.40;;;;;;5112440;28;20955;-55
2023/03/17 00:13:16;;;;;;;6.30;6.20;;;21.40;46.50;;;;;;5110513;28;20964;-52
2023/03/17 00:15:52;;;;;;;6.63;6.53;;;21.30;46.50;;;;;;5101721;28;20457;-53
2023/03/17 00:18:20;;;;;;;6.53;6.43;;;21.30;46.50;;;;;;5103111;28;20462;-53
2023/03/17 00:20:48;;;;;;;6.30;6.20;;;21.30;46.60;;;;;;5119558;28;20480;-55
2023/03/17 00:23:18;;;;;;;7.10;7.00;;;21.30;46.70;;;;;;5112831;28;20999;-52
2023/03/17 00:25:46;;;;;;;6.10;6.00;;;21.30;46.80;;;;;;5117204;28;20471;-52
2023/03/17 00:28:17;;;;;;;6.60;6.37;;;21.20;46.70;;;;;;5103605;28;20918;-52
2023/03/17 00:30:45;;;;;;;6.33;6.23;;;21.20;46.80;;;;;;5118869;28;20483;-56
2023/03/17 00:33:12;;;;;;;6.53;6.43;;;21.20;46.80;;;;;;5103063;28;20465;-55
2023/03/17 00:35:40;;;;;;;6.80;6.70;;;21.20;46.90;;;;;;5102139;28;20474;-53
2023/03/17 00:38:11;;;;;;;6.80;6.70;;;21.20;46.90;;;;;;5110399;28;20445;-55
2023/03/17 00:40:37;;;;;;;6.63;6.53;;;21.20;47.00;;;;;;5098827;28;20478;-52
2023/03/17 00:43:04;;;;;;;7.87;7.60;;;21.20;47.00;;;;;;5104174;28;20504;-55
2023/03/17 00:45:31;;;;;;;6.70;6.50;;;21.20;47.00;;;;;;5102678;28;20482;-51
2023/03/17 00:48:00;;;;;;;5.90;5.80;;;21.20;47.10;;;;;;5102033;28;20487;-52
2023/03/17 00:50:29;;;;;;;6.77;6.63;;;21.20;47.00;;;;;;5118971;28;20791;-56
2023/03/17 00:52:57;;;;;;;6.53;6.43;;;21.20;47.10;;;;;;5106849;28;20501;-52
2023/03/17 00:55:26;;;;;;;6.10;6.00;;;21.10;47.10;;;;;;5098840;28;20443;-55
2023/03/17 00:57:53;;;;;;;6.67;6.47;;;21.10;47.10;;;;;;5099120;28;20443;-55
2023/03/17 01:00:23;;;;;;;6.63;6.53;;;21.10;47.10;;;;;;5110964;28;20479;-54
2023/03/17 01:02:50;;;;;;;6.67;6.57;;;21.10;47.10;;;;;;5095043;28;20462;-53
2023/03/17 01:05:20;;;;;;;6.70;6.50;;;21.10;47.10;;;;;;5098350;28;20486;-60
2023/03/17 01:07:51;;;;;;;6.70;6.50;;;21.10;47.20;;;;;;5093783;28;20489;-57
2023/03/17 01:10:21;;;;;;;5.77;5.67;;;21.10;47.20;;;;;;5110527;28;20450;-54
2023/03/17 01:12:48;;;;;;;6.23;6.13;;;21.10;47.20;;;;;;5096538;28;20516;-53
2023/03/17 01:15:16;;;;;;;6.87;6.77;;;21.10;47.20;;;;;;5100836;28;21008;-54
2023/03/17 01:17:43;;;;;;;6.30;6.20;;;21.00;47.20;;;;;;5109599;28;20437;-55
2023/03/17 01:20:17;;;;;;;6.30;6.20;;;21.00;47.30;;;;;;5106003;28;20449;-54
2023/03/17 01:22:45;;;;;;;6.23;6.13;;;21.00;47.20;;;;;;5093243;28;20501;-54
2023/03/17 01:25:13;;;;;;;6.50;6.40;;;21.00;47.20;;;;;;5104524;28;20526;-55
2023/03/17 01:27:41;;;;;;;6.30;6.20;;;21.00;47.20;;;;;;5104898;28;20527;-53
2023/03/17 01:30:13;;;;;;;6.40;6.30;;;21.00;47.20;;;;;;5104951;28;20441;-55
2023/03/17 01:32:40;;;;;;;6.40;6.20;;;21.00;47.20;;;;;;5097180;28;20490;-55
2023/03/17 01:35:07;;;;;;;6.67;6.43;;;21.00;47.20;;;;;;5101278;28;20521;-54
2023/03/17 01:37:35;;;;;;;6.43;6.23;;;20.90;47.10;;;;;;5093057;28;20477;-54
2023/03/17 01:40:03;;;;;;;6.73;6.60;;;21.00;47.20;;;;;;5112368;28;20446;-54
2023/03/17 01:42:30;;;;;;;6.40;6.30;;;20.90;47.10;;;;;;5092799;28;20497;-53
2023/03/17 01:45:02;;;;;;;6.47;6.37;;;20.90;47.10;;;;;;5108632;28;20542;-55
2023/03/17 01:47:30;;;;;;;6.10;6.00;;;20.90;47.10;;;;;;5097465;28;20569;-56
2023/03/17 01:49:59;;;;;;;6.43;6.23;;;20.90;47.10;;;;;;5103788;28;20453;-58
2023/03/17 01:52:28;;;;;;;6.10;6.00;;;20.90;47.10;;;;;;5105310;28;20489;-55
2023/03/17 01:55:00;;;;;;;6.30;6.10;;;20.90;47.20;;;;;;5103425;28;20448;-56
2023/03/17 01:57:33;;;;;;;6.50;6.40;;;20.80;47.20;;;;;;5102048;28;20860;-53
2023/03/17 02:00:05;;;;;;;6.07;5.93;;;20.90;47.30;;;;;;5107821;28;20502;-55
2023/03/17 02:02:35;;;;;;;6.30;6.10;;;20.80;47.20;;;;;;5111108;28;20466;-53
2023/03/17 02:05:03;;;;;;;6.53;6.33;;;20.90;47.30;;;;;;5103986;28;20469;-53
2023/03/17 02:07:30;;;;;;;7.47;7.27;;;20.80;47.30;;;;;;5112740;28;20838;-53
2023/03/17 02:09:57;;;;;;;6.63;6.43;;;20.80;47.30;;;;;;5093751;28;20442;-55
2023/03/17 02:12:26;;;;;;;6.30;6.20;;;20.80;47.30;;;;;;5092518;28;20489;-54
2023/03/17 02:14:55;;;;;;;6.80;6.70;;;20.80;47.30;;;;;;5103188;28;20871;-52
2023/03/17 02:17:24;;;;;;;6.97;6.87;;;20.80;47.30;;;;;;5095959;28;20521;-54
2023/03/17 02:19:52;;;;;;;6.40;6.30;;;20.80;47.40;;;;;;5108677;28;20480;-54
2023/03/17 02:22:20;;;;;;;6.90;6.60;;;20.80;47.40;;;;;;5092841;28;20830;-55
2023/03/17 02:24:51;;;;;;;6.23;6.10;;;20.80;47.40;;;;;;5107303;28;20487;-52
2023/03/17 02:27:21;;;;;;;5.77;5.67;;;20.80;47.40;;;;;;5092139;28;20482;-52
2023/03/17 02:29:49;;;;;;;6.50;6.40;;;20.70;47.30;;;;;;5097479;28;20871;-52
2023/03/17 02:32:18;;;;;;;8.03;7.73;;;20.80;47.40;;;;;;5109546;28;20474;-52
2023/03/17 02:34:46;;;;;;;8.30;8.10;;;20.70;47.30;;;;;;5096615;28;20493;-52
2023/03/17 02:37:13;;;;;;;7.73;7.63;;;20.70;47.30;;;;;;5092172;28;20819;-55
2023/03/17 02:39:42;;;;;;;8.10;7.90;;;20.70;47.40;;;;;;5108188;28;20454;-55
2023/03/17 02:42:11;;;;;;;8.27;8.07;;;20.70;47.40;;;;;;5099647;28;20470;-57
2023/03/17 02:44:39;;;;;;;8.57;8.37;;;20.70;47.50;;;;;;5104493;28;20473;-60
2023/03/17 02:47:07;;;;;;;8.10;7.90;;;20.70;47.50;;;;;;5110334;28;20441;-56
2023/03/17 02:49:36;;;;;;;8.87;8.67;;;20.70;47.50;;;;;;5097192;28;20445;-52
2023/03/17 02:52:03;;;;;;;8.60;8.33;;;20.70;47.50;;;;;;5102732;28;21045;-57
2023/03/17 02:54:30;;;;;;;7.83;7.70;;;20.70;47.50;;;;;;5101206;28;20526;-55
2023/03/17 02:56:58;;;;;;;8.27;8.07;;;20.70;47.50;;;;;;5102162;28;20528;-53
2023/03/17 02:59:25;;;;;;;8.43;8.23;;;20.70;47.50;;;;;;5097543;28;20525;-52
2023/03/17 03:01:52;;;;;;;7.87;7.77;;;20.60;47.40;;;;;;5092855;28;20505;-53
2023/03/17 03:04:20;;;;;;;8.00;7.80;;;20.70;47.50;;;;;;5102863;28;20958;-53
2023/03/17 03:06:47;;;;;;;8.17;7.97;;;20.60;47.40;;;;;;5113135;28;20472;-54
2023/03/17 03:09:16;;;;;;;7.60;7.40;;;20.60;47.40;;;;;;5114953;28;20515;-54
2023/03/17 03:11:43;;;;;;;7.90;7.73;;;20.70;47.50;;;;;;5098858;28;20831;-53
2023/03/17 03:14:12;;;;;;;8.07;7.90;;;20.70;47.50;;;;;;5095491;28;20533;-56
2023/03/17 03:16:39;;;;;;;7.53;7.43;;;20.60;47.50;;;;;;5095765;28;20532;-53
2023/03/17 03:19:07;;;;;;;7.60;7.50;;;20.60;47.50;;;;;;5095107;28;20526;-53
2023/03/17 03:21:34;;;;;;;8.10;7.90;;;20.70;47.60;;;;;;5095286;28;20431;-52
2023/03/17 03:24:01;;;;;;;7.83;7.63;;;20.60;47.50;;;;;;5095476;28;20477;-52
2023/03/17 03:26:28;;;;;;;7.90;7.53;;;20.60;47.50;;;;;;5095467;28;21003;-52
2023/03/17 03:28:56;;;;;;;8.20;8.00;;;20.60;47.60;;;;;;5095031;28;20569;-54
2023/03/17 03:31:24;;;;;;;7.80;7.60;;;20.60;47.60;;;;;;5113976;28;20438;-53
2023/03/17 03:33:52;;;;;;;7.80;7.60;;;20.60;47.60;;;;;;5104084;28;20441;-54
2023/03/17 03:36:19;;;;;;;8.20;8.00;;;20.60;47.60;;;;;;5106221;28;20532;-54
2023/03/17 03:38:46;;;;;;;8.57;8.37;;;20.60;47.60;;;;;;5104166;28;20863;-52
2023/03/17 03:41:13;;;;;;;8.07;7.87;;;20.60;47.60;;;;;;5116234;28;20985;-53
2023/03/17 03:43:41;;;;;;;8.37;8.17;;;20.60;47.70;;;;;;5112458;28;20905;-53
2023/03/17 03:46:07;;;;;;;7.70;7.50;;;20.60;47.60;;;;;;5115688;28;20453;-54
2023/03/17 03:48:36;;;;;;;8.63;8.43;;;20.60;47.70;;;;;;5100243;28;20509;-54
2023/03/17 03:51:03;;;;;;;8.27;8.07;;;20.60;47.70;;;;;;5113154;28;20469;-55
2023/03/17 03:53:31;;;;;;;8.90;8.60;;;20.50;47.60;;;;;;5112158;28;20500;-54
2023/03/17 03:55:57;;;;;;;8.30;8.10;;;20.60;47.70;;;;;;5115485;28;20635;-55
2023/03/17 03:58:24;;;;;;;8.47;8.27;;;20.50;47.70;;;;;;5109080;28;20975;-52
2023/03/17 04:00:51;;;;;;;7.70;7.60;;;20.50;47.70;;;;;;5104419;28;20863;-53
2023/03/17 04:03:18;;;;;;;8.10;7.90;;;20.50;47.70;;;;;;5102831;28;20498;-54
2023/03/17 04:05:47;;;;;;;7.80;7.60;;;20.50;47.70;;;;;;5112279;28;20528;-53
2023/03/17 04:08:13;;;;;;;7.63;7.47;;;20.50;47.70;;;;;;5112633;28;20569;-54
2023/03/17 04:10:40;;;;;;;7.40;7.30;;;20.50;47.70;;;;;;5094591;28;20534;-52
2023/03/17 04:13:08;;;;;;;7.30;7.20;;;20.50;47.70;;;;;;5097203;28;20481;-52
2023/03/17 04:15:35;;;;;;;8.30;8.10;;;20.50;47.70;;;;;;5094527;28;20450;-54
2023/03/17 04:18:03;;;;;;;7.83;7.63;;;20.50;47.70;;;;;;5095095;28;20439;-57
2023/03/17 04:20:30;;;;;;;7.93;7.73;;;20.50;47.70;;;;;;5113301;28;20511;-57
2023/03/17 04:22:59;;;;;;;8.30;8.10;;;20.50;47.70;;;;;;5097068;28;20545;-55
2023/03/17 04:25:26;;;;;;;8.20;8.00;;;20.50;47.70;;;;;;5094978;28;20501;-53
2023/03/17 04:27:52;;;;;;;8.23;8.03;;;20.50;47.70;;;;;;5095240;28;20561;-53
2023/03/17 04:30:19;;;;;;;7.70;7.50;;;20.50;47.70;;;;;;5109069;28;20520;-55
2023/03/17 04:32:46;;;;;;;8.37;8.17;;;20.50;47.70;;;;;;5105545;28;20502;-56
2023/03/17 04:35:16;;;;;;;8.10;7.90;;;20.50;47.70;;;;;;5111772;28;20482;-53
2023/03/17 04:37:43;;;;;;;8.37;8.17;;;20.50;47.70;;;;;;5097386;28;20474;-53
2023/03/17 04:40:13;;;;;;;8.63;8.43;;;20.40;47.70;;;;;;5110705;28;20537;-52
2023/03/17 04:42:40;;;;;;;7.83;7.67;;;20.50;47.70;;;;;;5093927;28;20550;-52
2023/03/17 04:45:10;;;;;;;8.20;8.00;;;20.50;47.70;;;;;;5097494;28;20928;-54
2023/03/17 04:47:37;;;;;;;8.20;8.00;;;20.40;47.60;;;;;;5108226;28;20540;-57
2023/03/17 04:50:06;;;;;;;7.97;7.80;;;20.50;47.70;;;;;;5095749;28;20550;-53
2023/03/17 04:52:34;;;;;;;8.53;8.37;;;20.50;47.70;;;;;;5108658;28;20465;-56
2023/03/17 04:55:00;;;;;;;8.13;7.93;;;20.50;47.70;;;;;;5110307;28;20476;-53
2023/03/17 04:57:29;;;;;;;8.40;8.20;;;20.50;47.70;;;;;;5114248;28;20517;-52
2023/03/17 04:59:56;;;;;;;8.37;8.17;;;20.50;47.70;;;;;;5095022;28;21027;-53
2023/03/17 05:02:23;;;;;;;8.03;7.87;;;20.50;47.70;;;;;;5093565;28;20477;-54
2023/03/17 05:04:50;;;;;;;8.13;7.93;;;20.50;47.70;;;;;;5102749;28;20458;-54
2023/03/17 05:07:17;;;;;;;8.30;8.10;;;20.40;47.60;;;;;;5100403;28;20461;-56
2023/03/17 05:09:45;;;;;;;8.60;8.40;;;20.50;47.70;;;;;;5109720;28;20651;-54
2023/03/17 05:12:13;;;;;;;8.70;8.50;;;20.50;47.70;;;;;;5096690;28;20461;-56
2023/03/17 05:14:42;;;;;;;8.47;8.27;;;20.50;47.70;;;;;;5101860;28;20517;-53
2023/03/17 05:17:09;;;;;;;8.80;8.60;;;20.50;47.70;;;;;;5093423;28;20549;-56
2023/03/17 05:19:35;;;;;;;10.07;9.77;;;20.50;47.70;;;;;;5094584;28;20529;-55
2023/03/17 05:22:02;;;;;;;8.87;8.67;;;20.40;47.70;;;;;;5093227;28;20998;-55
2023/03/17 05:24:29;;;;;;;8.77;8.57;;;20.40;47.70;;;;;;5098291;28;20992;-57
2023/03/17 05:26:56;;;;;;;9.27;9.00;;;20.40;47.70;;;;;;5102737;28;20481;-55
2023/03/17 05:29:23;;;;;;;8.60;8.30;;;20.50;47.70;;;;;;5102599;28;21021;-55
2023/03/17 05:31:51;;;;;;;8.20;8.00;;;20.50;47.70;;;;;;5114366;28;20497;-51
2023/03/17 05:34:18;;;;;;;9.23;9.03;;;20.50;47.50;;;;;;5102449;28;20470;-51
2023/03/17 05:36:45;;;;;;;9.03;8.70;;;20.50;47.60;;;;;;5114614;28;20965;-51
2023/03/17 05:39:12;;;;;;;8.63;8.33;;;20.50;47.70;;;;;;5101244;28;20449;-52
2023/03/17 05:41:39;;;;;;;8.90;8.70;;;20.40;47.80;;;;;;5109622;28;20501;-50
2023/03/17 05:44:07;;;;;;;9.00;8.80;;;20.40;47.80;;;;;;5100138;28;20497;-51
2023/03/17 05:46:34;;;;;;;9.33;9.13;;;20.50;48.00;;;;;;5103393;28;20482;-49
2023/03/17 05:49:02;;;;;;;9.03;8.83;;;20.50;47.80;;;;;;5103618;28;20512;-51
2023/03/17 05:51:29;;;;;;;8.80;8.60;;;20.50;47.60;;;;;;5113456;28;20927;-49
2023/03/17 05:53:56;;;;;;;9.10;8.80;;;20.50;47.50;;;;;;5108195;28;20996;-55
2023/03/17 05:56:25;;;;;;;9.33;9.03;;;20.50;47.40;;;;;;5106548;28;20807;-55
2023/03/17 05:58:52;;;;;;;10.20;9.60;;;20.60;47.60;;;;;;5102772;28;20435;-54
2023/03/17 06:01:19;;;;;;;10.33;9.87;;;20.60;47.80;;;;;;5101447;28;20533;-55
2023/03/17 06:03:47;;;;;;;10.53;9.93;;;20.60;48.00;;;;;;5108235;28;20442;-50
2023/03/17 06:06:15;;;;;;;10.43;10.03;;;20.70;48.20;;;;;;5093805;28;20450;-50
2023/03/17 06:08:42;;;;;;;10.67;10.17;;;20.60;48.40;;;;;;5101134;28;20564;-51
2023/03/17 06:11:09;;;;;;;10.80;10.50;;;20.70;48.50;;;;;;5101153;28;20482;-50
2023/03/17 06:13:36;;;;;;;11.13;10.60;;;20.70;48.50;;;;;;5107152;28;20470;-52
2023/03/17 06:16:03;;;;;;;9.90;9.47;;;20.70;48.60;;;;;;5092780;28;20818;-51
2023/03/17 06:18:30;;;;;;;10.60;10.30;;;20.70;48.60;;;;;;5095706;28;20438;-50
2023/03/17 06:20:57;;;;;;;10.17;9.77;;;20.70;48.60;;;;;;5113195;28;20839;-53
2023/03/17 06:23:25;;;;;;;11.13;10.83;;;20.80;48.60;;;;;;5107384;28;20886;-52
2023/03/17 06:25:52;;;;;;;11.80;11.10;;;20.80;48.60;;;;;;5094612;28;20453;-50
2023/03/17 06:28:19;;;;;;;9.53;9.23;;;20.80;48.50;;;;;;5105754;28;20476;-52
2023/03/17 06:30:46;;;;;;;9.40;9.20;;;20.80;48.50;;;;;;5107899;28;20437;-54
2023/03/17 06:33:13;;;;;;;11.13;10.63;;;20.90;48.60;;;;;;5099977;28;21042;-54
2023/03/17 06:35:40;;;;;;;10.27;9.80;;;20.90;48.40;;;;;;5105916;28;20442;-54
2023/03/17 06:38:07;;;;;;;10.63;10.23;;;21.00;49.60;;;;;;5095353;28;20441;-56
2023/03/17 06:40:35;;;;;;;10.10;9.80;;;21.00;50.50;;;;;;5112703;28;20437;-50
2023/03/17 06:43:03;;;;;;;11.63;11.03;;;21.10;49.60;;;;;;5109586;28;20504;-54
2023/03/17 06:45:31;;;;;;;13.07;12.10;;;21.20;49.40;;;;;;5092974;28;20454;-52
2023/03/17 06:47:58;;;;;;;11.70;10.97;;;21.30;49.00;;;;;;5093309;28;20449;-51
2023/03/17 06:50:25;;;;;;;10.53;10.13;;;21.40;48.70;;;;;;5091857;28;20587;-52
2023/03/17 06:52:52;;;;;;;10.97;10.67;;;21.40;48.30;;;;;;5096390;28;20472;-55
2023/03/17 06:55:20;;;;;;;10.80;10.40;;;21.50;48.00;;;;;;5105257;28;20480;-54
2023/03/17 06:57:48;;;;;;;11.10;10.50;;;21.60;47.80;;;;;;5111204;28;20441;-55
2023/03/17 07:00:16;;;;;;;11.63;11.20;;;21.60;47.60;;;;;;5092621;28;20489;-52
2023/03/17 07:02:42;;;;;;;11.33;11.00;;;21.70;47.60;;;;;;5093054;28;20502;-50
2023/03/17 07:05:12;;;;;;;14.90;14.23;;;21.70;47.40;;;;;;5110979;28;20445;-48
2023/03/17 07:07:39;;;;;;;19.13;18.43;;;21.80;48.20;;;;;;5103318;27;20441;-48
2023/03/17 07:10:09;;;;;;;14.23;13.50;;;21.80;47.90;;;;;;5100897;28;20473;-44
2023/03/17 07:12:36;;;;;;;14.03;13.43;;;21.80;47.50;;;;;;5107649;28;20496;-44
2023/03/17 07:15:05;;;;;;;14.83;14.43;;;21.90;47.40;;;;;;5104493;28;20782;-46
2023/03/17 07:17:32;;;;;;;14.03;13.63;;;21.90;47.20;;;;;;5112779;28;20481;-45
2023/03/17 07:19:59;;;;;;;15.40;14.90;;;22.00;47.10;;;;;;5092856;28;20508;-48
2023/03/17 07:22:26;;;;;;;13.90;13.50;;;22.00;47.00;;;;;;5096538;28;20494;-45
2023/03/17 07:24:53;;;;;;;13.23;12.83;;;22.00;46.90;;;;;;5103438;28;20474;-45
2023/03/17 07:27:21;;;;;;;14.07;13.63;;;22.10;47.00;;;;;;5091637;28;20481;-46
2023/03/17 07:29:48;;;;;;;14.10;13.60;;;22.10;46.90;;;;;;5107070;28;20544;-46
2023/03/17 07:32:16;;;;;;;14.33;13.83;;;22.20;48.10;;;;;;5111547;28;21029;-46
2023/03/17 07:34:43;;;;;;;13.93;13.37;;;22.20;48.80;;;;;;5112199;28;20484;-45
2023/03/17 07:37:11;;;;;;;13.93;13.53;;;22.30;48.20;;;;;;5112884;28;20469;-45
2023/03/17 07:39:40;;;;;;;13.60;13.20;;;22.30;47.20;;;;;;5111943;28;20448;-46
2023/03/17 07:42:07;;;;;;;14.73;14.23;;;22.30;46.90;;;;;;5110822;28;20468;-47
2023/03/17 07:44:36;;;;;;;14.30;13.70;;;22.40;46.80;;;;;;5111537;28;20480;-45
2023/03/17 07:47:03;;;;;;;15.47;14.67;;;22.40;47.30;;;;;;5112220;28;20446;-44
2023/03/17 07:49:32;;;;;;;14.43;13.93;;;22.40;46.80;;;;;;5111790;28;20922;-45
2023/03/17 07:51:59;;;;;;;15.27;14.77;;;22.40;46.60;;;;;;5111164;28;20552;-45
2023/03/17 07:54:27;;;;;;;13.83;13.43;;;22.50;46.50;;;;;;5100621;28;20994;-47
2023/03/17 07:56:54;;;;;;;14.73;14.23;;;22.50;47.20;;;;;;5115340;28;20458;-47
2023/03/17 07:59:22;;;;;;;14.17;13.67;;;22.50;46.60;;;;;;5097719;28;20430;-48
2023/03/17 08:01:49;;;;;;;14.70;14.10;;;22.40;46.40;;;;;;5115656;28;20973;-47
2023/03/17 08:04:16;;;;;;;14.20;13.77;;;22.50;46.60;;;;;;5103221;28;20446;-47
2023/03/17 08:06:45;;;;;;;14.60;14.00;;;22.50;46.80;;;;;;5102540;28;20477;-46
2023/03/17 08:09:13;;;;;;;15.00;14.37;;;22.50;46.70;;;;;;5110802;28;20486;-47
2023/03/17 08:11:40;;;;;;;14.13;13.67;;;22.50;46.80;;;;;;5115222;28;20472;-48
2023/03/17 08:14:08;;;;;;;14.30;13.70;;;22.50;46.70;;;;;;5099488;28;20438;-48
2023/03/17 08:16:35;;;;;;;14.00;13.60;;;22.50;46.80;;;;;;5107079;28;20453;-48
2023/03/17 08:19:03;;;;;;;14.70;14.10;;;22.50;46.80;;;;;;5095334;28;20962;-48
2023/03/17 08:21:30;;;;;;;14.93;14.33;;;22.40;46.70;;;;;;5094398;28;20525;-46
2023/03/17 08:23:59;;;;;;;14.27;13.70;;;22.40;46.80;;;;;;5110993;28;20850;-46
2023/03/17 08:26:26;;;;;;;15.20;14.60;;;22.40;46.90;;;;;;5096218;28;20478;-50
2023/03/17 08:28:53;;;;;;;14.30;13.70;;;22.50;47.00;;;;;;5109682;28;20529;-49
2023/03/17 08:31:21;;;;;;;13.47;13.07;;;22.50;46.80;;;;;;5107743;28;21011;-47
2023/03/17 08:33:51;;;;;;;14.23;13.83;;;22.50;46.70;;;;;;5099841;28;20448;-46
2023/03/17 08:36:19;;;;;;;14.47;13.97;;;22.50;46.60;;;;;;5110013;28;20477;-45
2023/03/17 08:38:46;;;;;;;14.20;13.80;;;22.50;46.60;;;;;;5109110;28;20489;-46
2023/03/17 08:41:17;;;;;;;15.60;14.80;;;22.40;46.40;;;;;;5094554;28;20446;-50
2023/03/17 08:43:45;;;;;;;15.43;14.73;;;22.40;46.40;;;;;;5096107;28;20457;-47
2023/03/17 08:46:16;;;;;;;14.80;14.10;;;22.40;46.70;;;;;;5096712;28;20939;-49
2023/03/17 08:48:43;;;;;;;14.23;13.73;;;22.30;47.00;;;;;;5110798;28;20442;-50
2023/03/17 08:51:11;;;;;;;14.17;13.57;;;22.40;47.30;;;;;;5094145;28;20452;-47
2023/03/17 08:53:39;;;;;;;14.90;14.30;;;22.40;47.20;;;;;;5107920;28;20487;-45
2023/03/17 08:56:07;;;;;;;14.60;14.10;;;22.40;47.00;;;;;;5101133;28;20478;-46
2023/03/17 08:58:39;;;;;;;15.00;14.40;;;22.40;46.90;;;;;;5107539;28;20857;-46
2023/03/17 09:01:07;;;;;;;14.03;13.47;;;22.50;47.10;;;;;;5100903;28;20534;-51
2023/03/17 09:03:34;;;;;;;15.33;14.83;;;22.60;47.30;;;;;;5100746;28;20562;-51
2023/03/17 09:06:03;;;;;;;14.03;13.53;;;22.60;47.20;;;;;;5097275;28;20446;-51
2023/03/17 09:08:30;;;;;;;13.90;13.50;;;22.60;47.10;;;;;;5111318;28;20445;-48
2023/03/17 09:10:57;;;;;;;14.13;13.53;;;22.70;47.30;;;;;;5093445;28;20482;-49
2023/03/17 09:13:24;;;;;;;14.07;13.60;;;22.70;47.20;;;;;;5108936;28;20496;-51
2023/03/17 09:15:53;;;;;;;13.50;13.10;;;22.70;46.80;;;;;;5098558;28;20529;-49
2023/03/17 09:18:19;;;;;;;13.60;13.20;;;22.60;46.70;;;;;;5093691;28;20504;-46
2023/03/17 09:20:46;;;;;;;14.13;13.63;;;22.50;46.80;;;;;;5094681;28;20978;-49
2023/03/17 09:23:14;;;;;;;15.00;14.40;;;22.50;46.60;;;;;;5095111;28;20466;-46
2023/03/17 09:25:42;;;;;;;14.23;13.73;;;22.50;46.50;;;;;;5103927;28;20524;-50
2023/03/17 09:28:10;;;;;;;13.87;13.37;;;22.50;46.50;;;;;;5104222;28;20453;-48
2023/03/17 09:30:40;;;;;;;13.50;13.10;;;22.50;46.50;;;;;;5098444;28;20572;-47
2023/03/17 09:33:09;;;;;;;13.87;13.47;;;22.60;46.50;;;;;;5113639;28;20470;-47
2023/03/17 09:35:36;;;;;;;14.75;14.25;;;22.50;46.20;;;;;;5106947;28;20816;-47
2023/03/17 09:38:03;;;;;;;16.00;15.50;;;22.50;46.40;;;;;;5114289;28;20238;-52
2023/03/17 09:40:32;;;;;;;16.63;15.83;;;22.50;46.50;;;;;;5114332;28;20438;-51
2023/03/17 09:43:11;;;;;;;16.20;15.70;;;22.60;46.60;;;;;;5114307;28;20504;-52
2023/03/17 09:45:40;;;;;;;15.90;15.40;;;22.60;47.10;;;;;;5111115;28;20541;-48
2023/03/17 09:48:28;;;;;;;17.40;16.80;;;22.50;46.50;;;;;;5106303;28;20477;-51
2023/03/17 09:50:58;;;;;;;16.90;16.13;;;22.50;46.50;;;;;;5102016;28;20510;-48
2023/03/17 09:53:32;;;;;;;16.87;16.17;;;22.50;46.40;;;;;;5097212;28;20466;-51
2023/03/17 09:56:02;;;;;;;16.70;16.10;;;22.60;46.40;;;;;;5113195;28;20789;-46
2023/03/17 09:58:32;;;;;;;16.97;16.30;;;22.50;46.20;;;;;;5094398;28;20875;-50
2023/03/17 10:01:01;;;;;;;17.00;16.43;;;22.50;46.20;;;;;;5093257;28;20529;-49
2023/03/17 10:03:29;;;;;;;16.53;16.03;;;22.50;45.60;;;;;;5092665;28;20494;-48
2023/03/17 10:06:12;;;;;;;16.67;16.07;;;22.40;46.00;;;;;;5092502;28;20939;-49
2023/03/17 10:08:45;;;;;;;16.20;15.70;;;22.60;46.40;;;;;;5092123;28;20967;-47
2023/03/17 10:11:18;;;;;;;16.20;15.70;;;22.70;46.40;;;;;;5092439;28;20481;-49
2023/03/17 10:13:54;;;;;;;16.10;15.60;;;22.70;46.40;;;;;;5092259;28;20494;-46
2023/03/17 10:16:27;;;;;;;16.13;15.63;;;22.80;46.30;;;;;;5091161;28;20499;-50
2023/03/17 10:19:00;;;;;;;16.33;15.83;;;22.80;46.60;;;;;;5091765;28;20451;-49
2023/03/17 10:21:30;;;;;;;15.90;15.40;;;22.80;46.50;;;;;;5092060;28;20474;-49
2023/03/17 10:23:58;;;;;;;16.20;15.60;;;22.80;46.50;;;;;;5092057;28;20931;-48
2023/03/17 10:26:30;;;;;;;16.30;15.80;;;22.80;46.50;;;;;;5091487;28;20478;-49
2023/03/17 10:28:58;;;;;;;16.93;16.33;;;22.80;46.50;;;;;;5091775;28;20439;-49
2023/03/17 10:31:29;;;;;;;16.33;15.83;;;22.80;46.40;;;;;;5091822;28;20486;-49
2023/03/17 10:34:04;;;;;;;16.03;15.43;;;22.80;46.40;;;;;;5091926;28;20939;-50
2023/03/17 10:36:37;;;;;;;16.07;15.57;;;22.80;46.50;;;;;;5091633;28;20469;-49
2023/03/17 10:39:06;;;;;;;17.37;16.73;;;22.80;46.70;;;;;;5091784;28;20533;-49
2023/03/17 10:41:36;;;;;;;17.43;16.67;;;22.90;46.80;;;;;;5091838;28;20443;-50
2023/03/17 10:44:09;;;;;;;16.40;15.70;;;22.90;46.60;;;;;;5091813;28;20533;-49
2023/03/17 10:46:38;;;;;;;16.10;15.30;;;22.80;45.70;;;;;;5091588;28;20454;-47
2023/03/17 10:49:16;;;;;;;16.50;15.90;;;22.60;45.70;;;;;;5091605;28;20544;-49
2023/03/17 10:51:46;;;;;;;16.70;16.10;;;22.60;46.10;;;;;;5091603;28;20517;-54
2023/03/17 10:54:17;;;;;;;16.50;15.90;;;22.50;47.00;;;;;;5091796;28;20504;-53
2023/03/17 10:56:47;;;;;;;16.93;16.33;;;22.50;47.40;;;;;;5091637;28;20478;-50
2023/03/17 10:59:19;;;;;;;16.67;16.07;;;22.50;47.50;;;;;;5091453;28;20503;-53
2023/03/17 11:01:52;;;;;;;16.17;15.67;;;22.40;47.30;;;;;;5091722;28;20458;-48
2023/03/17 11:04:30;;;;;;;15.90;15.40;;;22.40;47.20;;;;;;5090995;28;20810;-49
2023/03/17 11:06:59;;;;;;;16.80;16.20;;;22.40;47.10;;;;;;5091771;28;20492;-49
2023/03/17 11:09:28;;;;;;;16.43;15.83;;;22.40;47.10;;;;;;5092026;28;20506;-55
2023/03/17 11:12:03;;;;;;;16.97;16.37;;;22.40;47.10;;;;;;5091492;28;20450;-51
2023/03/17 11:14:30;;;;;;;16.60;16.10;;;22.40;47.00;;;;;;5091406;28;20509;-50
2023/03/17 11:17:00;;;;;;;16.63;16.13;;;22.40;47.00;;;;;;5091788;28;20446;-50
2023/03/17 11:19:41;;;;;;;16.40;15.90;;;22.40;47.00;;;;;;5091634;28;20947;-52
2023/03/17 11:22:13;;;;;;;17.70;17.10;;;22.40;47.10;;;;;;5091855;28;20493;-50
2023/03/17 11:24:51;;;;;;;16.20;15.60;;;22.50;47.10;;;;;;5091647;28;20883;-51
2023/03/17 11:27:27;;;;;;;17.40;16.80;;;22.50;47.10;;;;;;5091989;28;20792;-50
2023/03/17 11:30:12;;;;;;;16.60;16.00;;;22.50;47.00;;;;;;5095800;28;20477;-51
2023/03/17 11:32:46;;;;;;;16.43;15.83;;;22.50;46.90;;;;;;5095511;28;20836;-50
2023/03/17 11:35:37;;;;;;;16.60;16.10;;;22.50;46.90;;;;;;5095762;28;20533;-48
2023/03/17 11:38:24;;;;;;;17.30;16.60;;;22.50;47.00;;;;;;5095904;28;20484;-48
2023/03/17 11:41:16;;;;;;;16.33;15.83;;;22.50;47.00;;;;;;5096266;28;20442;-51
2023/03/17 11:44:00;;;;;;;16.50;15.80;;;22.50;47.00;;;;;;5085868;28;20454;-49
2023/03/17 11:46:33;;;;;;;16.10;15.60;;;22.50;47.00;;;;;;5095056;28;20462;-50
2023/03/17 11:49:08;;;;;;;16.30;15.80;;;22.60;47.10;;;;;;5094889;28;20529;-52
2023/03/17 11:51:48;;;;;;;16.20;15.60;;;22.50;46.90;;;;;;5094963;28;20477;-50
2023/03/17 11:54:22;;;;;;;15.57;15.17;;;22.50;46.90;;;;;;5094901;28;20457;-49
2023/03/17 11:56:52;;;;;;;16.53;15.93;;;22.50;46.90;;;;;;5094720;28;20566;-52
2023/03/17 11:59:26;;;;;;;15.80;15.40;;;22.50;46.90;;;;;;5093871;28;20474;-50
2023/03/17 12:02:03;;;;;;;16.00;15.40;;;22.50;46.90;;;;;;5094976;28;20472;-52
2023/03/17 12:04:36;;;;;;;15.90;15.40;;;22.50;46.80;;;;;;5095063;28;20445;-50
2023/03/17 12:07:14;;;;;;;16.60;16.10;;;22.50;46.80;;;;;;5094842;28;20453;-53
2023/03/17 12:09:45;;;;;;;15.77;15.30;;;22.50;46.80;;;;;;5094507;28;20438;-50
2023/03/17 12:12:15;;;;;;;16.33;15.83;;;22.50;47.00;;;;;;5094711;28;20905;-51
2023/03/17 12:14:47;;;;;;;15.93;15.30;;;22.40;46.80;;;;;;5094389;28;20869;-51
2023/03/17 12:17:20;;;;;;;16.27;15.70;;;22.50;46.80;;;;;;5094961;28;20860;-47
2023/03/17 12:20:05;;;;;;;15.70;15.20;;;22.50;46.80;;;;;;5095302;28;20948;-48
2023/03/17 12:22:38;;;;;;;16.10;15.50;;;22.50;46.70;;;;;;5095079;28;20524;-51
2023/03/17 12:25:13;;;;;;;16.00;15.50;;;22.50;46.70;;;;;;5112361;28;20449;-52
2023/03/17 12:27:47;;;;;;;16.03;15.53;;;22.60;46.80;;;;;;5114668;28;20543;-52
2023/03/17 12:30:24;;;;;;;15.90;15.40;;;22.50;46.50;;;;;;5114515;28;20891;-50
2023/03/17 12:32:59;;;;;;;16.00;15.50;;;22.60;46.70;;;;;;5114428;28;20465;-51
2023/03/17 12:35:29;;;;;;;16.43;15.93;;;22.60;46.50;;;;;;5114230;28;20947;-54
2023/03/17 12:38:00;;;;;;;16.00;15.50;;;22.60;47.00;;;;;;5114301;28;20485;-51
2023/03/17 12:40:32;;;;;;;15.90;15.40;;;22.70;47.20;;;;;;5114431;28;20545;-48
2023/03/17 12:43:17;;;;;;;16.10;15.60;;;22.60;46.60;;;;;;5112596;28;20466;-52
2023/03/17 12:46:02;;;;;;;15.97;15.47;;;22.50;46.60;;;;;;5114501;28;21014;-51